Time;durP1;ratioP1;P1;durP2;ratioP2;P2;SDS_P1;SDS_P2;PMS_P1;PMS_P2;Temp;Humidity;BMP_temperature;BMP_pressure;BME280_temperature;BME280_humidity;BME280_pressure;Samples;Min_cycle;Max_cycle;Signal;HPM_P1;HPM_P2
2022/03/09 00:01:06;;;;;;;12.18;6.55;;;;;;;;;;5051590;28;20057;-83
2022/03/09 00:03:33;;;;;;;16.08;6.75;;;;;;;;;;5026622;28;20108;-83
2022/03/09 00:05:59;;;;;;;15.13;6.95;;;;;;;;;;5057984;28;20064;-83
2022/03/09 00:08:26;;;;;;;15.27;6.80;;;;;;;;;;5048934;28;20056;-83
2022/03/09 00:10:53;;;;;;;15.98;7.88;;;;;;;;;;5049116;28;20053;-83
2022/03/09 00:13:19;;;;;;;12.55;6.05;;;;;;;;;;5025554;28;20100;-82
2022/03/09 00:15:45;;;;;;;16.27;7.43;;;;;;;;;;5038232;28;20569;-83
2022/03/09 00:18:12;;;;;;;18.30;7.07;;;;;;;;;;5047088;28;20050;-83
2022/03/09 00:20:38;;;;;;;16.80;6.78;;;;;;;;;;5036481;28;20053;-83
2022/03/09 00:23:05;;;;;;;13.20;6.50;;;;;;;;;;5051049;28;20054;-83
2022/03/09 00:25:31;;;;;;;15.60;6.82;;;;;;;;;;5051981;28;20111;-83
2022/03/09 00:27:57;;;;;;;14.73;7.47;;;;;;;;;;5034767;28;20595;-83
2022/03/09 00:30:24;;;;;;;12.55;6.95;;;;;;;;;;5032809;28;20115;-83
2022/03/09 00:32:50;;;;;;;17.90;7.40;;;;;;;;;;5033808;28;20135;-83
2022/03/09 00:35:17;;;;;;;18.13;6.95;;;;;;;;;;5048659;28;20076;-83
2022/03/09 00:37:43;;;;;;;16.17;7.18;;;;;;;;;;5044763;28;20115;-83
2022/03/09 00:40:09;;;;;;;14.00;6.85;;;;;;;;;;5045121;28;20570;-83
2022/03/09 00:42:36;;;;;;;16.73;6.82;;;;;;;;;;5034198;28;20054;-83
2022/03/09 00:45:03;;;;;;;14.20;6.78;;;;;;;;;;5051228;28;20057;-83
2022/03/09 00:47:30;;;;;;;13.63;7.13;;;;;;;;;;5032944;28;20057;-83
2022/03/09 00:49:56;;;;;;;17.17;7.65;;;;;;;;;;5040703;28;20049;-83
2022/03/09 00:52:23;;;;;;;14.13;7.10;;;;;;;;;;5051392;28;20046;-82
2022/03/09 00:54:49;;;;;;;14.23;7.00;;;;;;;;;;5030880;28;20116;-83
2022/03/09 00:57:16;;;;;;;13.55;6.93;;;;;;;;;;5028733;28;20133;-83
2022/03/09 00:59:45;;;;;;;13.10;6.75;;;;;;;;;;5039003;28;20084;-82
2022/03/09 01:02:11;;;;;;;14.18;7.43;;;;;;;;;;5031605;28;20062;-82
2022/03/09 01:04:39;;;;;;;15.82;7.45;;;;;;;;;;5050086;28;20053;-83
2022/03/09 01:07:06;;;;;;;14.07;6.93;;;;;;;;;;5054141;28;20049;-83
2022/03/09 01:09:32;;;;;;;14.55;7.10;;;;;;;;;;5041588;28;20061;-83
2022/03/09 01:11:59;;;;;;;13.15;6.45;;;;;;;;;;5037131;28;20508;-83
2022/03/09 01:14:25;;;;;;;15.73;7.35;;;;;;;;;;5053691;28;20089;-82
2022/03/09 01:16:52;;;;;;;15.35;7.68;;;;;;;;;;5039990;28;20539;-83
2022/03/09 01:19:18;;;;;;;15.48;7.35;;;;;;;;;;5042862;28;20119;-83
2022/03/09 01:21:44;;;;;;;13.38;6.82;;;;;;;;;;5029028;28;20085;-83
2022/03/09 01:24:11;;;;;;;13.68;6.80;;;;;;;;;;5035126;28;20057;-83
2022/03/09 01:26:37;;;;;;;15.35;7.45;;;;;;;;;;5052909;28;20107;-83
2022/03/09 01:29:06;;;;;;;17.00;7.20;;;;;;;;;;5064342;28;20049;-83
2022/03/09 01:31:33;;;;;;;14.10;6.53;;;;;;;;;;5061540;28;21077;-82
2022/03/09 01:33:59;;;;;;;15.45;7.43;;;;;;;;;;5036297;28;20088;-82
2022/03/09 01:36:26;;;;;;;14.93;7.65;;;;;;;;;;5044022;28;20033;-82
2022/03/09 01:38:52;;;;;;;16.92;7.60;;;;;;;;;;5056248;28;20057;-82
2022/03/09 01:41:18;;;;;;;14.38;6.97;;;;;;;;;;5062049;28;20049;-82
2022/03/09 01:43:45;;;;;;;15.98;8.23;;;;;;;;;;5036036;28;20104;-83
2022/03/09 01:46:11;;;;;;;17.40;8.30;;;;;;;;;;5031189;28;20112;-82
2022/03/09 01:48:37;;;;;;;15.05;7.15;;;;;;;;;;5040485;28;20053;-83
2022/03/09 01:51:04;;;;;;;16.85;7.97;;;;;;;;;;5034855;28;20061;-82
2022/03/09 01:53:30;;;;;;;19.05;7.47;;;;;;;;;;5038360;28;20058;-83
2022/03/09 01:55:57;;;;;;;19.70;8.52;;;;;;;;;;5048960;28;20061;-83
2022/03/09 01:58:23;;;;;;;16.98;7.90;;;;;;;;;;5041621;28;20096;-82
2022/03/09 02:00:50;;;;;;;15.43;7.68;;;;;;;;;;5054436;28;20080;-83
2022/03/09 02:03:16;;;;;;;15.68;7.65;;;;;;;;;;5034593;28;20564;-83
2022/03/09 02:05:43;;;;;;;22.38;7.60;;;;;;;;;;5032652;28;20062;-83
2022/03/09 02:10:54;;;;;;;15.38;7.82;;;;;;;;;;5044167;28;20111;-83
2022/03/09 02:13:20;;;;;;;16.88;8.38;;;;;;;;;;5053542;28;20053;-82
2022/03/09 02:15:47;;;;;;;16.52;8.30;;;;;;;;;;5036119;28;20038;-82
2022/03/09 02:18:13;;;;;;;17.40;9.00;;;;;;;;;;5052960;28;20057;-82
2022/03/09 02:20:42;;;;;;;17.60;9.98;;;;;;;;;;5042190;28;20057;-82
2022/03/09 02:23:08;;;;;;;16.70;8.88;;;;;;;;;;5042423;28;20104;-83
2022/03/09 02:25:34;;;;;;;15.13;8.30;;;;;;;;;;5036209;28;20076;-82
2022/03/09 02:28:03;;;;;;;18.58;8.98;;;;;;;;;;5035334;28;20048;-82
2022/03/09 02:30:29;;;;;;;16.40;8.40;;;;;;;;;;5034815;28;20053;-82
2022/03/09 02:32:56;;;;;;;20.15;8.32;;;;;;;;;;5052636;28;20096;-82
2022/03/09 02:35:22;;;;;;;15.57;8.40;;;;;;;;;;5062989;28;20077;-82
2022/03/09 02:37:48;;;;;;;15.88;7.93;;;;;;;;;;5039136;28;20045;-82
2022/03/09 02:40:16;;;;;;;18.13;8.40;;;;;;;;;;5038066;28;20057;-83
2022/03/09 02:42:42;;;;;;;17.33;8.07;;;;;;;;;;5047462;28;20677;-83
2022/03/09 02:45:09;;;;;;;17.15;8.68;;;;;;;;;;5036596;28;20192;-83
2022/03/09 02:47:38;;;;;;;16.05;7.65;;;;;;;;;;5054134;28;20053;-83
2022/03/09 02:50:05;;;;;;;19.20;9.10;;;;;;;;;;5034217;28;20046;-83
2022/03/09 02:52:31;;;;;;;17.20;7.38;;;;;;;;;;5039713;28;20058;-83
2022/03/09 02:54:57;;;;;;;15.98;7.88;;;;;;;;;;5027574;28;20056;-83
2022/03/09 02:57:25;;;;;;;15.85;8.00;;;;;;;;;;5056547;28;20053;-83
2022/03/09 02:59:51;;;;;;;19.38;8.43;;;;;;;;;;5064945;28;20053;-83
2022/03/09 03:02:18;;;;;;;18.60;8.02;;;;;;;;;;5041742;28;20041;-83
2022/03/09 03:04:44;;;;;;;17.92;9.07;;;;;;;;;;5046030;28;20057;-83
2022/03/09 03:07:11;;;;;;;17.60;8.27;;;;;;;;;;5036693;28;20058;-83
2022/03/09 03:09:37;;;;;;;17.00;8.30;;;;;;;;;;5033042;28;20046;-83
2022/03/09 03:12:03;;;;;;;16.00;8.40;;;;;;;;;;5047979;28;20053;-83
2022/03/09 03:14:30;;;;;;;19.08;8.55;;;;;;;;;;5061985;28;20061;-82
2022/03/09 03:16:56;;;;;;;17.70;8.93;;;;;;;;;;5044552;28;20111;-83
2022/03/09 03:19:22;;;;;;;17.70;8.52;;;;;;;;;;5034720;28;21587;-83
2022/03/09 03:21:49;;;;;;;16.13;7.97;;;;;;;;;;5032601;28;20049;-83
2022/03/09 03:24:15;;;;;;;19.63;8.15;;;;;;;;;;5035333;28;20579;-83
2022/03/09 03:26:42;;;;;;;22.52;8.57;;;;;;;;;;5032978;28;20507;-83
2022/03/09 03:29:08;;;;;;;15.82;8.38;;;;;;;;;;5035857;28;20065;-83
2022/03/09 03:31:34;;;;;;;17.88;8.85;;;;;;;;;;5041168;28;20053;-83
2022/03/09 03:34:01;;;;;;;17.85;8.48;;;;;;;;;;5035059;28;20050;-82
2022/03/09 03:36:27;;;;;;;17.20;7.95;;;;;;;;;;5054164;28;20049;-83
2022/03/09 03:38:53;;;;;;;17.77;7.88;;;;;;;;;;5036808;28;20053;-83
2022/03/09 03:41:20;;;;;;;17.65;7.88;;;;;;;;;;5052925;28;20064;-82
2022/03/09 03:43:46;;;;;;;17.65;8.43;;;;;;;;;;5033375;28;20061;-83
2022/03/09 03:46:13;;;;;;;17.50;8.00;;;;;;;;;;5035466;28;20053;-83
2022/03/09 03:48:39;;;;;;;21.55;8.55;;;;;;;;;;5052742;28;20061;-83
2022/03/09 03:51:05;;;;;;;16.80;8.30;;;;;;;;;;5052206;28;20061;-83
2022/03/09 03:53:32;;;;;;;16.80;8.18;;;;;;;;;;5062272;28;20065;-83
2022/03/09 03:55:58;;;;;;;16.42;8.35;;;;;;;;;;5034901;28;20508;-83
2022/03/09 03:58:26;;;;;;;19.00;8.77;;;;;;;;;;5035229;28;20062;-83
2022/03/09 04:00:52;;;;;;;17.42;8.35;;;;;;;;;;5026431;28;20050;-83
2022/03/09 04:03:19;;;;;;;18.35;8.60;;;;;;;;;;5061035;28;20058;-83
2022/03/09 04:05:45;;;;;;;20.42;9.88;;;;;;;;;;5035559;28;20057;-82
2022/03/09 04:08:12;;;;;;;17.00;9.63;;;;;;;;;;5052377;28;20908;-83
2022/03/09 04:10:38;;;;;;;18.65;9.60;;;;;;;;;;5043463;28;20057;-82
2022/03/09 04:13:04;;;;;;;18.58;9.35;;;;;;;;;;5032426;28;20100;-82
2022/03/09 04:15:32;;;;;;;22.90;9.25;;;;;;;;;;5035474;28;20068;-83
2022/03/09 04:17:58;;;;;;;16.60;8.65;;;;;;;;;;5032095;28;20062;-82
2022/03/09 04:20:25;;;;;;;17.13;8.90;;;;;;;;;;5054488;28;20057;-82
2022/03/09 04:22:51;;;;;;;17.52;8.85;;;;;;;;;;5058975;28;20061;-83
2022/03/09 04:25:20;;;;;;;18.65;8.18;;;;;;;;;;5033757;28;20045;-82
2022/03/09 04:27:47;;;;;;;15.02;7.88;;;;;;;;;;5052500;28;20076;-83
2022/03/09 04:30:13;;;;;;;19.70;8.40;;;;;;;;;;5051916;28;20057;-83
2022/03/09 04:32:40;;;;;;;16.25;7.68;;;;;;;;;;5034583;28;20068;-83
2022/03/09 04:35:07;;;;;;;17.23;8.35;;;;;;;;;;5047855;28;20058;-83
2022/03/09 04:37:34;;;;;;;21.58;8.13;;;;;;;;;;5067645;28;20064;-82
2022/03/09 04:40:02;;;;;;;28.98;9.00;;;;;;;;;;5036520;28;20054;-83
2022/03/09 04:42:29;;;;;;;17.85;7.97;;;;;;;;;;5073331;28;20096;-82
2022/03/09 04:44:56;;;;;;;16.27;7.90;;;;;;;;;;5045149;28;20115;-83
2022/03/09 04:47:22;;;;;;;18.48;8.30;;;;;;;;;;5044919;28;20058;-83
2022/03/09 04:49:51;;;;;;;24.50;8.68;;;;;;;;;;5040169;28;20037;-83
2022/03/09 04:52:18;;;;;;;17.58;7.75;;;;;;;;;;5054545;28;20689;-83
2022/03/09 04:54:45;;;;;;;19.88;8.07;;;;;;;;;;5055928;28;20050;-83
2022/03/09 04:57:13;;;;;;;15.98;7.47;;;;;;;;;;5038194;28;20619;-83
2022/03/09 04:59:39;;;;;;;17.50;7.97;;;;;;;;;;5035514;28;20108;-83
2022/03/09 05:02:06;;;;;;;18.77;8.05;;;;;;;;;;5050752;28;20065;-83
2022/03/09 05:04:32;;;;;;;18.73;7.47;;;;;;;;;;5035845;28;20402;-83
2022/03/09 05:06:58;;;;;;;16.05;7.55;;;;;;;;;;5035385;28;20085;-83
2022/03/09 05:09:25;;;;;;;17.27;7.38;;;;;;;;;;5028173;28;20491;-83
2022/03/09 05:11:51;;;;;;;15.52;7.85;;;;;;;;;;5036928;28;20049;-83
2022/03/09 05:14:17;;;;;;;18.08;8.23;;;;;;;;;;5045841;28;20041;-83
2022/03/09 05:16:44;;;;;;;18.10;7.50;;;;;;;;;;5038131;28;20037;-83
2022/03/09 05:19:10;;;;;;;17.30;8.63;;;;;;;;;;5054073;28;20109;-83
2022/03/09 05:21:37;;;;;;;21.45;8.13;;;;;;;;;;5063763;28;20120;-83
2022/03/09 05:24:04;;;;;;;19.00;8.10;;;;;;;;;;5063198;28;20080;-83
2022/03/09 05:26:30;;;;;;;16.25;7.22;;;;;;;;;;5035621;28;20062;-84
2022/03/09 05:28:57;;;;;;;16.63;7.90;;;;;;;;;;5036462;28;20054;-83
2022/03/09 05:31:24;;;;;;;14.23;7.25;;;;;;;;;;5059947;28;20127;-83
2022/03/09 05:33:51;;;;;;;16.98;7.32;;;;;;;;;;5053488;28;20057;-83
2022/03/09 05:36:17;;;;;;;18.02;7.97;;;;;;;;;;5049824;28;20505;-82
2022/03/09 05:38:44;;;;;;;16.98;8.27;;;;;;;;;;5062739;28;20104;-83
2022/03/09 05:41:10;;;;;;;16.65;7.78;;;;;;;;;;5031797;28;20050;-82
2022/03/09 05:43:40;;;;;;;15.68;7.85;;;;;;;;;;5053744;28;20084;-84
2022/03/09 05:46:07;;;;;;;16.92;7.97;;;;;;;;;;5057304;28;20128;-83
2022/03/09 05:48:34;;;;;;;17.73;7.60;;;;;;;;;;5045491;28;20543;-83
2022/03/09 05:51:01;;;;;;;19.05;8.57;;;;;;;;;;5064513;28;20072;-83
2022/03/09 05:53:27;;;;;;;17.75;7.85;;;;;;;;;;5035315;28;20054;-83
2022/03/09 05:55:53;;;;;;;17.58;7.97;;;;;;;;;;5043755;28;20057;-83
2022/03/09 05:58:20;;;;;;;17.80;7.93;;;;;;;;;;5039513;28;20049;-83
2022/03/09 06:00:46;;;;;;;16.48;7.97;;;;;;;;;;5036247;28;20050;-83
2022/03/09 06:03:13;;;;;;;18.27;8.40;;;;;;;;;;5048698;28;20630;-82
2022/03/09 06:05:39;;;;;;;17.92;8.32;;;;;;;;;;5037460;28;20907;-82
2022/03/09 06:08:06;;;;;;;16.75;7.53;;;;;;;;;;5045305;28;20969;-83
2022/03/09 06:10:33;;;;;;;17.80;7.70;;;;;;;;;;5045700;28;20069;-83
2022/03/09 06:12:59;;;;;;;18.08;8.27;;;;;;;;;;5037852;28;20030;-83
2022/03/09 06:15:25;;;;;;;16.27;7.78;;;;;;;;;;5041348;28;20053;-83
2022/03/09 06:17:52;;;;;;;17.23;7.40;;;;;;;;;;5060654;28;20048;-82
2022/03/09 06:20:19;;;;;;;18.02;8.13;;;;;;;;;;5039980;28;20060;-83
2022/03/09 06:22:45;;;;;;;20.17;8.65;;;;;;;;;;5049564;28;20057;-83
2022/03/09 06:25:14;;;;;;;18.65;7.20;;;;;;;;;;5065834;28;20064;-83
2022/03/09 06:28:20;;;;;;;;;;;;;;;;;;;;;
2022/03/09 06:31:00;;;;;;;19.10;7.53;;;;;;;;;;5040243;28;20065;-83
2022/03/09 06:33:27;;;;;;;16.52;7.47;;;;;;;;;;5035716;28;20060;-82
2022/03/09 06:35:55;;;;;;;16.80;7.70;;;;;;;;;;5036269;28;20060;-82
2022/03/09 06:38:21;;;;;;;21.00;7.57;;;;;;;;;;5030112;28;20053;-83
2022/03/09 06:40:47;;;;;;;15.77;7.75;;;;;;;;;;5052581;28;20052;-83
2022/03/09 06:43:18;;;;;;;16.50;7.20;;;;;;;;;;5047515;28;20084;-83
2022/03/09 06:45:44;;;;;;;18.02;8.60;;;;;;;;;;5031386;28;20209;-84
2022/03/09 06:48:11;;;;;;;17.38;8.40;;;;;;;;;;5055986;28;20041;-84
2022/03/09 06:50:37;;;;;;;15.98;7.32;;;;;;;;;;5030569;28;20501;-84
2022/03/09 06:53:05;;;;;;;19.02;7.40;;;;;;;;;;5041146;28;20050;-83
2022/03/09 06:55:39;;;;;;;21.30;8.13;;;;;;;;;;5021171;28;20050;-84
2022/03/09 06:58:08;;;;;;;22.75;6.93;;;;;;;;;;5034312;28;20049;-83
2022/03/09 07:00:37;;;;;;;16.48;7.55;;;;;;;;;;5032021;28;20053;-83
2022/03/09 07:03:05;;;;;;;17.33;7.45;;;;;;;;;;5030239;28;20060;-83
2022/03/09 07:05:34;;;;;;;16.90;7.32;;;;;;;;;;5018768;28;20056;-85
2022/03/09 07:08:04;;;;;;;15.85;7.65;;;;;;;;;;5032287;28;20057;-83
2022/03/09 07:10:30;;;;;;;16.73;7.55;;;;;;;;;;5044642;28;20049;-85
2022/03/09 07:12:57;;;;;;;14.88;6.47;;;;;;;;;;5030379;28;20053;-83
2022/03/09 07:15:29;;;;;;;15.95;6.45;;;;;;;;;;5047562;28;20057;-84
2022/03/09 07:17:55;;;;;;;14.63;7.13;;;;;;;;;;5030941;28;20897;-82
2022/03/09 07:20:23;;;;;;;13.80;6.90;;;;;;;;;;5031567;28;20096;-84
2022/03/09 07:22:55;;;;;;;15.30;7.60;;;;;;;;;;5107928;27;20378;-82
2022/03/09 07:25:22;;;;;;;16.95;7.75;;;;;;;;;;5105162;27;20500;-82
2022/03/09 07:27:52;;;;;;;20.30;7.43;;;;;;;;;;5108079;27;20048;-83
2022/03/09 07:30:18;;;;;;;16.23;7.22;;;;;;;;;;5102677;27;20052;-82
2022/03/09 07:32:44;;;;;;;16.52;7.45;;;;;;;;;;5091217;27;20807;-83
2022/03/09 07:35:20;;;;;;;14.90;6.93;;;;;;;;;;5106093;27;20059;-83
2022/03/09 07:37:48;;;;;;;14.57;7.63;;;;;;;;;;5103739;27;20049;-83
2022/03/09 07:40:15;;;;;;;14.70;7.18;;;;;;;;;;5097906;27;20058;-83
2022/03/09 07:42:41;;;;;;;18.45;7.18;;;;;;;;;;5105143;27;20603;-82
2022/03/09 07:45:08;;;;;;;16.20;7.63;;;;;;;;;;5100487;27;20102;-83
2022/03/09 07:47:35;;;;;;;17.92;7.40;;;;;;;;;;5099868;27;20126;-80
2022/03/09 07:50:02;;;;;;;18.30;7.25;;;;;;;;;;5101848;27;20074;-80
2022/03/09 07:52:28;;;;;;;14.40;6.85;;;;;;;;;;5105832;27;20054;-80
2022/03/09 07:54:55;;;;;;;15.32;7.43;;;;;;;;;;5101602;27;20517;-80
2022/03/09 07:57:21;;;;;;;16.65;7.18;;;;;;;;;;5104873;27;20040;-80
2022/03/09 07:59:48;;;;;;;15.43;7.10;;;;;;;;;;5101606;27;20783;-81
2022/03/09 08:02:14;;;;;;;15.40;7.70;;;;;;;;;;5098216;27;20530;-80
2022/03/09 08:04:40;;;;;;;15.98;7.53;;;;;;;;;;5102946;27;20139;-80
2022/03/09 08:07:07;;;;;;;13.57;6.88;;;;;;;;;;5104461;27;20040;-81
2022/03/09 08:09:33;;;;;;;16.88;6.90;;;;;;;;;;5106595;27;20052;-80
2022/03/09 08:12:00;;;;;;;17.52;8.10;;;;;;;;;;5105256;27;20064;-80
2022/03/09 08:14:26;;;;;;;14.88;7.15;;;;;;;;;;5107453;27;20036;-81
2022/03/09 08:16:52;;;;;;;14.52;7.15;;;;;;;;;;5099539;27;20052;-81
2022/03/09 08:19:19;;;;;;;18.13;7.13;;;;;;;;;;5100826;27;20048;-81
2022/03/09 08:21:45;;;;;;;13.95;7.20;;;;;;;;;;5103798;27;20068;-81
2022/03/09 08:24:11;;;;;;;16.10;7.57;;;;;;;;;;5106061;27;20076;-80
2022/03/09 08:26:38;;;;;;;14.77;7.18;;;;;;;;;;5109111;27;20077;-81
2022/03/09 08:29:04;;;;;;;13.77;6.90;;;;;;;;;;5104510;27;20056;-79
2022/03/09 08:31:31;;;;;;;17.30;6.93;;;;;;;;;;5105690;27;20117;-80
2022/03/09 08:33:58;;;;;;;16.65;6.65;;;;;;;;;;5086368;27;21021;-81
2022/03/09 08:36:25;;;;;;;13.98;6.70;;;;;;;;;;5091292;28;20147;-79
2022/03/09 08:38:51;;;;;;;13.75;7.05;;;;;;;;;;5086836;28;20085;-79
2022/03/09 08:41:18;;;;;;;15.10;7.40;;;;;;;;;;5087928;28;20048;-79
2022/03/09 08:43:44;;;;;;;13.60;6.95;;;;;;;;;;5089858;28;20130;-79
2022/03/09 08:46:11;;;;;;;15.30;6.88;;;;;;;;;;5088742;28;20076;-80
2022/03/09 08:48:39;;;;;;;13.85;7.35;;;;;;;;;;5090781;28;20063;-80
2022/03/09 08:51:07;;;;;;;16.63;7.03;;;;;;;;;;5085027;28;20106;-80
2022/03/09 08:53:35;;;;;;;13.55;6.80;;;;;;;;;;5087446;28;20084;-80
2022/03/09 08:56:01;;;;;;;18.83;6.75;;;;;;;;;;5081889;28;20048;-80
2022/03/09 08:58:28;;;;;;;14.82;7.25;;;;;;;;;;5077831;28;20048;-80
2022/03/09 09:00:55;;;;;;;14.00;6.70;;;;;;;;;;5085799;28;20060;-79
2022/03/09 09:03:22;;;;;;;15.57;6.65;;;;;;;;;;5085336;28;20182;-80
2022/03/09 09:05:49;;;;;;;13.30;6.85;;;;;;;;;;5087643;28;20135;-79
2022/03/09 09:08:15;;;;;;;15.60;7.70;;;;;;;;;;5085717;28;20057;-79
2022/03/09 09:10:42;;;;;;;12.77;7.15;;;;;;;;;;5090981;28;20060;-80
2022/03/09 09:13:08;;;;;;;13.60;7.13;;;;;;;;;;5086994;28;20048;-81
2022/03/09 09:15:34;;;;;;;15.02;7.43;;;;;;;;;;5089638;28;20052;-80
2022/03/09 09:18:02;;;;;;;14.82;7.85;;;;;;;;;;5086942;28;20055;-79
2022/03/09 09:20:47;;;;;;;15.00;7.55;;;;;;;;;;5084165;28;20099;-80
2022/03/09 09:23:13;;;;;;;14.15;7.13;;;;;;;;;;5087218;28;20053;-80
2022/03/09 09:25:42;;;;;;;16.65;8.20;;;;;;;;;;5083928;28;20096;-81
2022/03/09 09:28:08;;;;;;;15.02;7.65;;;;;;;;;;5078566;28;20057;-80
2022/03/09 09:30:35;;;;;;;19.23;7.32;;;;;;;;;;5087083;28;20101;-80
2022/03/09 09:33:02;;;;;;;14.00;7.00;;;;;;;;;;5089479;28;20529;-80
2022/03/09 09:35:29;;;;;;;13.98;7.20;;;;;;;;;;5089329;28;20052;-80
2022/03/09 09:38:06;;;;;;;17.40;7.55;;;;;;;;;;5089225;28;20075;-80
2022/03/09 09:40:34;;;;;;;15.43;7.25;;;;;;;;;;5090546;28;20063;-81
2022/03/09 09:43:08;;;;;;;15.95;7.80;;;;;;;;;;5089263;28;20052;-81
2022/03/09 09:45:35;;;;;;;16.58;7.65;;;;;;;;;;5086789;28;20057;-81
2022/03/09 09:48:02;;;;;;;13.68;7.80;;;;;;;;;;5072836;28;20049;-81
2022/03/09 09:50:29;;;;;;;14.68;7.53;;;;;;;;;;5086939;28;20147;-81
2022/03/09 09:52:56;;;;;;;14.57;8.20;;;;;;;;;;5088521;28;20049;-81
2022/03/09 09:55:28;;;;;;;14.63;7.95;;;;;;;;;;5081052;28;20106;-81
2022/03/09 09:57:55;;;;;;;15.73;8.38;;;;;;;;;;5091426;28;20883;-81
2022/03/09 10:00:22;;;;;;;16.08;8.13;;;;;;;;;;5096944;28;20052;-80
2022/03/09 10:02:48;;;;;;;16.27;7.90;;;;;;;;;;5092098;28;20057;-81
2022/03/09 10:05:16;;;;;;;16.92;8.02;;;;;;;;;;5079640;28;20053;-81
2022/03/09 10:08:01;;;;;;;15.98;8.10;;;;;;;;;;5090741;28;20049;-81
2022/03/09 10:10:28;;;;;;;15.88;8.45;;;;;;;;;;5090300;28;20105;-81
2022/03/09 10:13:16;;;;;;;14.75;7.95;;;;;;;;;;5093405;28;20059;-81
2022/03/09 10:15:43;;;;;;;14.52;8.13;;;;;;;;;;5091934;28;20056;-81
2022/03/09 10:18:16;;;;;;;16.20;8.73;;;;;;;;;;5089457;28;20056;-81
2022/03/09 10:20:43;;;;;;;20.75;9.35;;;;;;;;;;5088406;28;20533;-81
2022/03/09 10:23:09;;;;;;;18.95;9.05;;;;;;;;;;5091540;28;20052;-81
2022/03/09 10:25:38;;;;;;;18.80;9.15;;;;;;;;;;5087374;28;20052;-81
2022/03/09 10:28:10;;;;;;;17.52;8.95;;;;;;;;;;5090761;28;20048;-81
2022/03/09 10:30:39;;;;;;;17.77;9.18;;;;;;;;;;5092598;28;20519;-81
2022/03/09 10:33:06;;;;;;;18.90;9.75;;;;;;;;;;5087750;28;20473;-81
2022/03/09 10:35:32;;;;;;;16.83;8.98;;;;;;;;;;5089299;28;20102;-81
2022/03/09 10:38:00;;;;;;;19.08;9.50;;;;;;;;;;5091941;28;20056;-81
2022/03/09 10:40:27;;;;;;;19.73;9.82;;;;;;;;;;5093048;28;20086;-81
2022/03/09 10:43:09;;;;;;;18.38;9.52;;;;;;;;;;5088107;28;20052;-81
2022/03/09 10:45:36;;;;;;;18.25;9.77;;;;;;;;;;5092007;28;20053;-81
2022/03/09 10:48:05;;;;;;;18.13;9.10;;;;;;;;;;5095413;28;20153;-81
2022/03/09 10:50:32;;;;;;;17.98;8.73;;;;;;;;;;5094399;28;20036;-81
2022/03/09 10:53:01;;;;;;;21.58;9.32;;;;;;;;;;5095642;28;20122;-81
2022/03/09 10:55:29;;;;;;;14.38;8.48;;;;;;;;;;5097041;28;20130;-81
2022/03/09 10:58:14;;;;;;;14.90;8.68;;;;;;;;;;5099172;28;20102;-81
2022/03/09 11:00:42;;;;;;;14.63;8.30;;;;;;;;;;5097167;28;20134;-81
2022/03/09 11:03:16;;;;;;;17.98;9.15;;;;;;;;;;5098955;28;20071;-81
2022/03/09 11:06:02;;;;;;;16.13;9.00;;;;;;;;;;5096930;28;20131;-81
2022/03/09 11:08:30;;;;;;;20.00;9.05;;;;;;;;;;5097105;28;20040;-81
2022/03/09 11:11:00;;;;;;;19.15;9.45;;;;;;;;;;5100071;28;20048;-81
2022/03/09 11:13:28;;;;;;;20.03;9.77;;;;;;;;;;5098151;28;20628;-81
2022/03/09 11:15:55;;;;;;;18.48;9.68;;;;;;;;;;5092023;28;20049;-81
2022/03/09 11:18:22;;;;;;;18.08;9.48;;;;;;;;;;5088814;28;20078;-80
2022/03/09 11:20:50;;;;;;;17.05;9.70;;;;;;;;;;5097002;28;20056;-81
2022/03/09 11:23:17;;;;;;;17.48;9.70;;;;;;;;;;5095066;28;20065;-81
2022/03/09 11:25:49;;;;;;;17.88;9.05;;;;;;;;;;5095843;28;20096;-81
2022/03/09 11:28:24;;;;;;;17.60;9.93;;;;;;;;;;5096330;28;20067;-81
2022/03/09 11:31:10;;;;;;;17.85;9.95;;;;;;;;;;5097054;28;20071;-81
2022/03/09 11:33:41;;;;;;;18.58;9.80;;;;;;;;;;5096106;28;20071;-80
2022/03/09 11:36:20;;;;;;;18.23;9.48;;;;;;;;;;5096205;28;20217;-80
2022/03/09 11:39:07;;;;;;;19.52;9.88;;;;;;;;;;5094866;28;20499;-80
2022/03/09 11:41:38;;;;;;;19.42;10.23;;;;;;;;;;5083732;28;20569;-81
2022/03/09 11:44:20;;;;;;;16.95;9.77;;;;;;;;;;5082865;28;20064;-82
2022/03/09 11:46:59;;;;;;;18.40;10.45;;;;;;;;;;5091898;28;20103;-82
2022/03/09 11:49:41;;;;;;;20.52;11.07;;;;;;;;;;5089553;28;20045;-81
2022/03/09 11:52:08;;;;;;;20.45;10.63;;;;;;;;;;5085913;28;20048;-82
2022/03/09 11:54:39;;;;;;;22.27;11.80;;;;;;;;;;5085200;28;20065;-81
2022/03/09 11:57:07;;;;;;;22.33;12.35;;;;;;;;;;5091578;28;20053;-82
2022/03/09 11:59:33;;;;;;;21.77;11.73;;;;;;;;;;5092184;28;20052;-82
2022/03/09 12:02:04;;;;;;;23.58;12.25;;;;;;;;;;5080702;28;20119;-82
2022/03/09 12:04:40;;;;;;;29.08;12.05;;;;;;;;;;5089913;28;20140;-82
2022/03/09 12:07:07;;;;;;;21.60;11.07;;;;;;;;;;5085776;28;20052;-81
2022/03/09 12:09:49;;;;;;;26.65;12.25;;;;;;;;;;5091411;27;20152;-82
2022/03/09 12:12:15;;;;;;;23.92;12.00;;;;;;;;;;5095557;28;20052;-82
2022/03/09 12:15:01;;;;;;;22.80;12.00;;;;;;;;;;5094071;28;20052;-81
2022/03/09 12:17:28;;;;;;;23.85;11.35;;;;;;;;;;5090043;28;20091;-81
2022/03/09 12:20:14;;;;;;;21.67;11.43;;;;;;;;;;5092529;28;20057;-81
2022/03/09 12:22:59;;;;;;;25.88;12.90;;;;;;;;;;5089644;28;20049;-81
2022/03/09 12:25:45;;;;;;;22.45;11.50;;;;;;;;;;5095303;28;20052;-80
2022/03/09 12:28:24;;;;;;;23.27;12.15;;;;;;;;;;5092645;28;20057;-80
2022/03/09 12:31:02;;;;;;;23.10;12.10;;;;;;;;;;5099748;28;20072;-80
2022/03/09 12:33:28;;;;;;;22.52;12.07;;;;;;;;;;5085739;28;20045;-80
2022/03/09 12:36:11;;;;;;;23.00;12.13;;;;;;;;;;5091186;28;20102;-80
2022/03/09 12:39:01;;;;;;;26.52;12.68;;;;;;;;;;5086498;28;20056;-80
2022/03/09 12:41:40;;;;;;;21.55;11.80;;;;;;;;;;5094882;28;20052;-80
2022/03/09 12:44:11;;;;;;;23.33;12.35;;;;;;;;;;5091191;28;20037;-80
2022/03/09 12:46:41;;;;;;;23.23;12.48;;;;;;;;;;5089954;28;20041;-81
2022/03/09 12:49:10;;;;;;;23.10;12.52;;;;;;;;;;5099102;27;20927;-81
2022/03/09 12:51:38;;;;;;;22.27;11.82;;;;;;;;;;5088717;28;20535;-79
2022/03/09 12:54:34;;;;;;;24.83;13.07;;;;;;;;;;5090351;28;20064;-80
2022/03/09 12:57:11;;;;;;;26.25;14.20;;;;;;;;;;5099413;28;20127;-80
2022/03/09 12:59:38;;;;;;;26.75;13.45;;;;;;;;;;5093748;28;20041;-79
2022/03/09 13:02:05;;;;;;;25.67;13.23;;;;;;;;;;5096849;28;20053;-79
2022/03/09 13:04:32;;;;;;;25.55;13.65;;;;;;;;;;5086899;28;20029;-79
2022/03/09 13:07:08;;;;;;;27.55;14.30;;;;;;;;;;5089962;28;20090;-80
2022/03/09 13:09:35;;;;;;;24.98;13.07;;;;;;;;;;5099420;28;20106;-80
2022/03/09 13:12:06;;;;;;;25.15;13.15;;;;;;;;;;5090929;28;20047;-79
2022/03/09 13:14:33;;;;;;;25.77;14.18;;;;;;;;;;5091278;28;20102;-77
2022/03/09 13:17:01;;;;;;;25.23;12.77;;;;;;;;;;5081793;28;20088;-77
2022/03/09 13:19:32;;;;;;;24.70;14.20;;;;;;;;;;5090581;28;20714;-77
2022/03/09 13:21:58;;;;;;;27.17;13.75;;;;;;;;;;5088662;28;20057;-77
2022/03/09 13:24:25;;;;;;;26.75;14.10;;;;;;;;;;5076632;28;20852;-77
2022/03/09 13:26:52;;;;;;;26.77;13.63;;;;;;;;;;5089402;28;20053;-77
2022/03/09 13:29:20;;;;;;;25.42;13.63;;;;;;;;;;5094974;28;20128;-77
2022/03/09 13:31:49;;;;;;;26.25;13.25;;;;;;;;;;5089626;28;20084;-77
2022/03/09 13:34:23;;;;;;;26.35;14.05;;;;;;;;;;5088815;28;20055;-78
2022/03/09 13:36:58;;;;;;;26.58;13.98;;;;;;;;;;5095034;28;20079;-77
2022/03/09 13:39:35;;;;;;;24.98;13.40;;;;;;;;;;5086348;28;20147;-75
2022/03/09 13:42:02;;;;;;;28.30;14.50;;;;;;;;;;5082332;28;20083;-75
2022/03/09 13:44:31;;;;;;;24.85;13.20;;;;;;;;;;5087804;28;20060;-77
2022/03/09 13:47:04;;;;;;;27.50;14.00;;;;;;;;;;5084492;28;20117;-76
2022/03/09 13:49:43;;;;;;;32.70;14.70;;;;;;;;;;5081203;28;20446;-76
2022/03/09 13:52:32;;;;;;;25.25;13.45;;;;;;;;;;5093873;28;20052;-77
2022/03/09 13:55:00;;;;;;;25.67;14.02;;;;;;;;;;5086290;28;20553;-76
2022/03/09 13:57:31;;;;;;;25.95;13.98;;;;;;;;;;5087035;28;20126;-77
2022/03/09 13:59:57;;;;;;;;;;;;;;;;;;5086787;28;20048;-76
2022/03/09 14:02:24;;;;;;;28.48;13.88;;;;;;;;;;5084401;28;47735;-76
2022/03/09 14:04:51;;;;;;;27.67;15.48;;;;;;;;;;5082377;28;20079;-76
2022/03/09 14:07:18;;;;;;;26.52;14.10;;;;;;;;;;5084548;28;20056;-76
2022/03/09 14:10:03;;;;;;;29.08;14.15;;;;;;;;;;5079106;28;20060;-76
2022/03/09 14:12:36;;;;;;;29.85;13.80;;;;;;;;;;5075876;28;20095;-76
2022/03/09 14:15:03;;;;;;;27.92;14.50;;;;;;;;;;5083112;28;20052;-76
2022/03/09 14:17:29;;;;;;;25.50;13.85;;;;;;;;;;5085275;28;20106;-77
2022/03/09 14:19:56;;;;;;;25.13;13.25;;;;;;;;;;5087638;28;20052;-76
2022/03/09 14:22:22;;;;;;;26.25;14.27;;;;;;;;;;5071012;28;20123;-76
2022/03/09 14:24:48;;;;;;;26.88;14.30;;;;;;;;;;5084166;28;20053;-77
2022/03/09 14:27:15;;;;;;;28.23;14.85;;;;;;;;;;5080747;28;20099;-76
2022/03/09 14:29:41;;;;;;;27.27;13.38;;;;;;;;;;5076794;28;20070;-77
2022/03/09 14:32:08;;;;;;;27.55;14.30;;;;;;;;;;5082673;28;20727;-76
2022/03/09 14:34:34;;;;;;;29.33;14.73;;;;;;;;;;5080621;28;20110;-76
2022/03/09 14:37:01;;;;;;;26.98;13.38;;;;;;;;;;5084913;28;20093;-76
2022/03/09 14:39:27;;;;;;;27.98;14.52;;;;;;;;;;5082051;28;20075;-76